AirNav   Duncan Aviation - Near you to keep you flying
 
 1454 users online  

IL82 Martin Airport
Clinton, Illinois, USA

GOING TO CLINTON?


FAA INFORMATION EFFECTIVE 01 DECEMBER 2022

Location

FAA Identifier: IL82
Lat/Long: 40-06-34.1300N 088-49-43.2710W
40-06.568833N 088-49.721183W
40.1094806,-88.8286864
(estimated)
Elevation: 725 ft. / 221.0 m (surveyed)
Variation: 00E (1985)
From city: 6 miles SE of CLINTON, IL
Time zone: UTC -6 (UTC -5 during Daylight Saving Time)
Zip code: 61727

Airport Operations

Airport use: Private use. Permission required prior to landing
Activation date: 10/1953
Control tower: no
ARTCC: CHICAGO CENTER
FSS: SAINT LOUIS FLIGHT SERVICE STATION
Attendance: IREG
Wind indicator: no
Segmented circle: no

Airport Communications

WX ASOS at DEC (17 nm S): PHONE 217-429-0052

Nearby radio navigation aids

VOR radial/distance  VOR name  Freq  Var
AXCr000/22.4ADDERS VORTAC117.2003E
BMIr165/22.8BLOOMINGTON VOR/DME108.2003E
CMIr277/25.8CHAMPAIGN VORTAC110.0003E

 
NDB name  Hdg/Dist  Freq  Var  ID
ABRAHAM097/23.632900EAAA .- .- .-

Airport Services

Airframe service: NONE
Powerplant service: NONE

Runway Information

Runway N/S

Dimensions: 2000 x 85 ft. / 610 x 26 m
Surface: turf
RUNWAY N  RUNWAY S
Traffic pattern: leftleft
Obstructions: nonepline

Airport Ownership and Management from official FAA records

Ownership: Privately-owned
Owner: RANDY MARTIN
16578 AIRPORT ROAD
CLINTON, IL 61727
Manager: RANDY MARTIN
16578 AIRPORT ROAD
CLINTON, IL 61727
Phone 217-736-2470
217-369-5819 (CELL)

Additional Remarks

FOR CD CTC CHAMPAIGN APCH AT 217-355-4069, WHEN APCH CLSD CTC CHICAGO ARTCC AT 630-906-8921

Instrument Procedures

There are no published instrument procedures at IL82.

Some nearby airports with instrument procedures:

KDEC - Decatur Airport (17 nm S)
KBMI - Central Illinois Regional Airport/Bloomington-Normal (22 nm N)
KAAA - Logan County Airport (23 nm W)
KCMI - University of Illinois/Willard Airport (26 nm E)
C16 - Frasca Field Airport (29 nm E)
 
Loc | Ops | Rwys | IFR | FBO | Links
Com | Nav | Svcs | Stats | Notes
Area around IL82 (Martin Airport)
 
Road maps at: MapQuest Bing Google
 
Aerial photo
No photo
 
Sectional chart

 
Airport distance calculator
Flying to Martin Airport? Find the distance to fly.

From to IL82

Sunrise and sunset
Times for 07-Dec-2022
 Local
(UTC-6)
 Zulu
(UTC)
Morning civil twilight06:3512:35
Sunrise07:0513:05
Sunset16:2922:29
Evening civil twilight16:5922:59

Current date and time
Zulu (UTC)  07-Dec-2022 14:51:26
Local (UTC-6)  07-Dec-2022 08:51:26
 
METAR
KDEC 
17nm S 
071431Z 04006KT 1 1/2SM BR OVC003 05/05 A3024 RMK AO2 T00500050
KBMI 
22nm N 
071402Z 04005KT 2SM BR OVC003 04/04 A3023 RMK AO2
KAAA 
23nm W 
071435Z AUTO 04004KT 2 1/2SM BR OVC004 04/04 A3025 RMK AO2 T00400040
KCMI 
26nm E 
071423Z 35004KT 1 1/2SM BR OVC003 06/04 A3022 RMK AO2 T00560044
KTIP 
33nm E 
071435Z AUTO 02004KT 1 1/4SM BR OVC002 05/05 A3022 RMK AO2 T00450045
TAF
KDEC 
17nm S 
071403Z 0714/0812 36003KT 1/4SM FG OVC002 FM071500 VRB03KT 1SM BR BKN002 FM071600 VRB03KT 3SM BR BKN008 FM071800 33005KT P6SM BKN018 FM080000 04003KT P6SM OVC012 FM080800 06008KT P6SM OVC007
NOTAMs
Click for the latest NOTAMs
NOTAMs are issued by the DoD/FAA and will open in a separate window not controlled by AirNav.

 

 
 

Would you like to see your business listed on this page?

 If your business provides an interesting product or service to pilots, flight crews, aircraft, or users of the Martin Airport, you should consider listing it here.  To start the listing process, click on the button below
 
Add a business
 

Other Pages about Martin Airport

Update a link
 
Copyright © AirNav, LLC. All rights reserved. Privacy Policy  Contact